Time;durP1;ratioP1;P1;durP2;ratioP2;P2;SDS_P1;SDS_P2;PMS_P1;PMS_P2;Temp;Humidity;BMP_temperature;BMP_pressure;BME280_temperature;BME280_humidity;BME280_pressure;Samples;Min_cycle;Max_cycle;Signal;HPM_P1;HPM_P2
2021/07/10 00:01:35;;;;;;;13.40;12.00;;;16.60;99.90;;;;;;5049407;28;20293;-65
2021/07/10 00:04:06;;;;;;;13.00;11.73;;;16.50;99.90;;;;;;5039743;28;20319;-65
2021/07/10 00:06:35;;;;;;;12.57;11.30;;;16.50;99.90;;;;;;5030284;28;20244;-66
2021/07/10 00:09:06;;;;;;;13.60;12.20;;;16.50;99.90;;;;;;5039269;28;20232;-66
2021/07/10 00:11:36;;;;;;;12.90;11.70;;;16.50;99.90;;;;;;5049464;28;20228;-65
2021/07/10 00:14:05;;;;;;;12.90;11.50;;;16.50;99.90;;;;;;5033985;28;20240;-65
2021/07/10 00:16:35;;;;;;;12.30;11.10;;;16.50;99.90;;;;;;5030087;28;20244;-67
2021/07/10 00:19:05;;;;;;;12.83;11.53;;;16.50;99.90;;;;;;5039195;28;20263;-66
2021/07/10 00:21:34;;;;;;;13.83;11.67;;;16.40;99.90;;;;;;5049153;28;20723;-65
2021/07/10 00:24:06;;;;;;;13.03;11.80;;;16.40;99.90;;;;;;5040105;28;20319;-66
2021/07/10 00:26:35;;;;;;;13.30;12.00;;;16.40;99.90;;;;;;5044262;28;20308;-65
2021/07/10 00:29:05;;;;;;;12.33;11.13;;;16.40;99.90;;;;;;5039421;28;20231;-66
2021/07/10 00:31:34;;;;;;;13.23;11.93;;;16.40;99.90;;;;;;5048804;28;20711;-65
2021/07/10 00:34:04;;;;;;;14.47;11.37;;;16.30;99.90;;;;;;5039678;28;20232;-66
2021/07/10 00:36:34;;;;;;;11.80;10.70;;;16.30;99.90;;;;;;5029491;28;20290;-66
2021/07/10 00:39:06;;;;;;;12.23;11.03;;;16.30;99.90;;;;;;5035657;28;20244;-66
2021/07/10 00:41:35;;;;;;;11.13;10.13;;;16.40;99.90;;;;;;5028521;28;20236;-66
2021/07/10 00:44:05;;;;;;;11.53;10.50;;;16.30;99.90;;;;;;5039196;28;20326;-65
2021/07/10 00:46:35;;;;;;;12.37;10.93;;;16.40;99.90;;;;;;5036694;28;20236;-65
2021/07/10 00:49:05;;;;;;;15.53;11.27;;;16.30;99.90;;;;;;5038260;28;20333;-66
2021/07/10 00:51:35;;;;;;;12.37;11.17;;;16.30;99.90;;;;;;5063408;28;20240;-65
2021/07/10 00:54:05;;;;;;;12.60;11.13;;;16.30;99.90;;;;;;5039168;28;20247;-66
2021/07/10 00:56:35;;;;;;;12.97;11.77;;;16.20;99.90;;;;;;5028662;28;20369;-65
2021/07/10 00:59:05;;;;;;;11.37;10.27;;;16.20;99.90;;;;;;5028276;28;20471;-66
2021/07/10 01:01:35;;;;;;;11.90;10.70;;;16.20;99.90;;;;;;5028061;28;20236;-66
2021/07/10 01:04:05;;;;;;;13.13;11.33;;;16.20;99.90;;;;;;5038320;28;20225;-65
2021/07/10 01:06:34;;;;;;;12.83;11.53;;;16.20;99.90;;;;;;5047475;28;20319;-66
2021/07/10 01:09:05;;;;;;;12.10;10.87;;;16.20;99.90;;;;;;5038058;28;20295;-66
2021/07/10 01:11:35;;;;;;;13.13;11.73;;;16.20;99.90;;;;;;5027362;28;20240;-65
2021/07/10 01:14:05;;;;;;;12.30;10.67;;;16.10;99.90;;;;;;5036395;28;20286;-65
2021/07/10 01:16:35;;;;;;;12.33;10.97;;;16.20;99.90;;;;;;5028245;28;20225;-65
2021/07/10 01:19:05;;;;;;;12.93;11.63;;;16.10;99.90;;;;;;5037300;28;20243;-65
2021/07/10 01:21:36;;;;;;;12.00;10.70;;;16.10;99.90;;;;;;5047151;28;20234;-65
2021/07/10 01:24:06;;;;;;;12.57;10.83;;;16.10;99.90;;;;;;5031879;28;20665;-65
2021/07/10 01:26:35;;;;;;;12.30;11.10;;;16.10;99.90;;;;;;5028400;28;20236;-66
2021/07/10 01:29:05;;;;;;;12.10;10.80;;;16.00;99.90;;;;;;5027135;28;20283;-66
2021/07/10 01:31:35;;;;;;;12.87;11.57;;;16.10;99.90;;;;;;5027480;28;20228;-65
2021/07/10 01:34:05;;;;;;;12.70;11.43;;;16.00;99.90;;;;;;5037656;28;20793;-66
2021/07/10 01:36:36;;;;;;;11.97;10.73;;;16.00;99.90;;;;;;5047482;28;20240;-65
2021/07/10 01:39:08;;;;;;;12.37;11.17;;;16.10;99.90;;;;;;5046942;28;20247;-64
2021/07/10 01:41:44;;;;;;;13.67;12.13;;;16.10;99.90;;;;;;5040179;28;20259;-66
2021/07/10 01:44:14;;;;;;;13.00;11.60;;;16.00;99.90;;;;;;5027613;28;20316;-66
2021/07/10 01:46:44;;;;;;;12.87;10.97;;;16.00;99.90;;;;;;5027711;28;20236;-65
2021/07/10 01:49:13;;;;;;;12.57;11.30;;;16.00;99.90;;;;;;5038242;28;20240;-66
2021/07/10 01:51:44;;;;;;;12.77;11.47;;;16.00;99.90;;;;;;5047121;28;20695;-66
2021/07/10 01:54:13;;;;;;;13.40;12.00;;;16.10;99.90;;;;;;5035921;28;20327;-66
2021/07/10 01:56:43;;;;;;;12.37;11.07;;;16.00;99.90;;;;;;5027793;28;20271;-66
2021/07/10 01:59:12;;;;;;;13.40;12.00;;;16.10;99.90;;;;;;5030717;28;20256;-66
2021/07/10 02:01:46;;;;;;;12.60;11.40;;;16.10;99.90;;;;;;5027409;28;20240;-66
2021/07/10 02:04:20;;;;;;;12.93;11.33;;;16.10;99.90;;;;;;5039979;28;20326;-65
2021/07/10 02:06:49;;;;;;;12.03;10.83;;;16.10;99.90;;;;;;5028666;28;20247;-66
2021/07/10 02:09:18;;;;;;;12.37;11.20;;;16.10;99.90;;;;;;5038966;28;20239;-66
2021/07/10 02:11:47;;;;;;;12.70;11.50;;;16.10;99.90;;;;;;5037167;28;20302;-65
2021/07/10 02:14:15;;;;;;;13.03;11.73;;;16.00;99.90;;;;;;5027564;28;20236;-65
2021/07/10 02:16:44;;;;;;;11.97;10.93;;;16.10;99.90;;;;;;5027407;28;20241;-66
2021/07/10 02:19:13;;;;;;;12.30;11.13;;;16.10;99.90;;;;;;5038058;28;20263;-66
2021/07/10 02:21:41;;;;;;;12.50;11.20;;;16.10;99.90;;;;;;5047058;28;20231;-66
2021/07/10 02:24:10;;;;;;;13.47;11.83;;;16.10;99.90;;;;;;5036454;28;20266;-66
2021/07/10 02:26:38;;;;;;;12.90;11.60;;;16.10;99.90;;;;;;5027436;28;20660;-66
2021/07/10 02:29:07;;;;;;;12.30;10.93;;;16.10;99.90;;;;;;5026959;28;20289;-65
2021/07/10 02:31:35;;;;;;;13.70;11.03;;;16.10;99.90;;;;;;5026721;28;20237;-65
2021/07/10 02:34:04;;;;;;;12.60;11.40;;;16.10;99.90;;;;;;5037123;28;20227;-65
2021/07/10 02:36:32;;;;;;;13.07;11.70;;;16.10;99.90;;;;;;5047788;28;20472;-66
2021/07/10 02:39:01;;;;;;;13.90;12.37;;;16.10;99.90;;;;;;5041827;28;20277;-65
2021/07/10 02:41:32;;;;;;;14.47;12.80;;;16.00;99.90;;;;;;5040263;28;20322;-66
2021/07/10 02:44:00;;;;;;;13.83;12.43;;;16.10;99.90;;;;;;5036473;28;20251;-66
2021/07/10 02:46:28;;;;;;;14.17;12.50;;;16.00;99.90;;;;;;5047168;28;20318;-66
2021/07/10 02:48:58;;;;;;;15.23;12.73;;;16.00;99.90;;;;;;5046744;28;20705;-65
2021/07/10 02:51:26;;;;;;;14.40;13.00;;;16.00;99.90;;;;;;5046725;28;20237;-66
2021/07/10 02:53:55;;;;;;;16.23;13.87;;;16.00;99.90;;;;;;5047030;28;20694;-66
2021/07/10 02:56:23;;;;;;;14.87;13.37;;;16.00;99.90;;;;;;5047067;28;20235;-66
2021/07/10 02:58:53;;;;;;;15.33;13.70;;;16.00;99.90;;;;;;5038469;28;20248;-65
2021/07/10 03:01:21;;;;;;;16.17;14.47;;;16.00;99.90;;;;;;5026656;28;20599;-65
2021/07/10 03:03:50;;;;;;;15.97;14.27;;;16.00;99.90;;;;;;5027010;28;20635;-67
2021/07/10 03:06:19;;;;;;;15.30;13.70;;;16.00;99.90;;;;;;5027357;28;20264;-66
2021/07/10 03:08:47;;;;;;;16.03;14.30;;;16.10;99.90;;;;;;5026344;28;20263;-66
2021/07/10 03:11:15;;;;;;;15.87;14.20;;;16.00;99.90;;;;;;5025970;28;20232;-66
2021/07/10 03:13:43;;;;;;;17.27;14.63;;;16.00;99.90;;;;;;5027053;28;20282;-65
2021/07/10 03:16:13;;;;;;;16.50;14.80;;;16.00;99.90;;;;;;5027088;28;20262;-66
2021/07/10 03:18:42;;;;;;;16.10;14.40;;;16.00;99.90;;;;;;5026324;28;20263;-65
2021/07/10 03:21:10;;;;;;;15.53;14.03;;;16.00;99.90;;;;;;5026271;28;20339;-65
2021/07/10 03:23:38;;;;;;;17.50;14.83;;;16.00;99.90;;;;;;5032681;28;20240;-66
2021/07/10 03:26:06;;;;;;;15.67;14.17;;;16.00;99.90;;;;;;5046959;28;20275;-65
2021/07/10 03:28:34;;;;;;;14.77;13.27;;;16.00;99.90;;;;;;5046582;28;20232;-65
2021/07/10 03:31:02;;;;;;;16.63;14.30;;;16.00;99.90;;;;;;5065778;28;20242;-65
2021/07/10 03:33:34;;;;;;;15.90;14.20;;;16.00;99.90;;;;;;5044927;28;20259;-65
2021/07/10 03:36:05;;;;;;;14.97;13.47;;;16.00;99.90;;;;;;5030260;28;20290;-65
2021/07/10 03:38:33;;;;;;;14.87;12.93;;;15.90;99.90;;;;;;5036013;28;20297;-66
2021/07/10 03:41:01;;;;;;;16.53;13.00;;;15.90;99.90;;;;;;5041880;28;20244;-65
2021/07/10 03:43:30;;;;;;;14.03;12.67;;;15.90;99.90;;;;;;5035341;28;20236;-66
2021/07/10 03:46:02;;;;;;;14.50;12.37;;;16.00;99.90;;;;;;5049919;28;20234;-65
2021/07/10 03:48:32;;;;;;;13.03;11.73;;;15.90;99.90;;;;;;5043742;28;20443;-65
2021/07/10 03:51:00;;;;;;;13.80;12.33;;;16.10;99.90;;;;;;5028821;28;20242;-66
2021/07/10 03:53:28;;;;;;;13.40;12.00;;;16.00;99.90;;;;;;5033809;28;20285;-66
2021/07/10 03:55:56;;;;;;;13.10;11.80;;;16.00;99.90;;;;;;5048473;28;20604;-66
2021/07/10 03:58:24;;;;;;;12.80;11.50;;;16.00;99.90;;;;;;5043835;28;20244;-66
2021/07/10 04:00:52;;;;;;;13.07;11.53;;;16.00;99.90;;;;;;5028564;28;20244;-66
2021/07/10 04:03:20;;;;;;;15.13;12.00;;;16.10;99.90;;;;;;5032003;28;21086;-66
2021/07/10 04:05:50;;;;;;;13.13;11.43;;;16.10;99.90;;;;;;5048547;28;20567;-66
2021/07/10 04:08:18;;;;;;;12.70;11.40;;;16.10;99.90;;;;;;5044243;28;20579;-66
2021/07/10 04:10:46;;;;;;;12.50;11.17;;;16.10;99.90;;;;;;5027710;28;20261;-65
2021/07/10 04:13:14;;;;;;;12.53;11.23;;;16.10;99.90;;;;;;5046471;28;20656;-66
2021/07/10 04:15:42;;;;;;;13.60;11.43;;;16.10;99.90;;;;;;5047812;28;20837;-66
2021/07/10 04:18:11;;;;;;;14.27;12.57;;;16.10;99.90;;;;;;5045243;28;20743;-66
2021/07/10 04:20:39;;;;;;;12.03;10.83;;;16.10;99.90;;;;;;5027868;28;20239;-66
2021/07/10 04:23:08;;;;;;;13.93;11.30;;;16.20;99.90;;;;;;5029920;28;20240;-66
2021/07/10 04:25:36;;;;;;;13.50;11.57;;;16.20;99.90;;;;;;5048210;28;20333;-66
2021/07/10 04:28:05;;;;;;;12.20;11.07;;;16.30;99.90;;;;;;5045495;28;20243;-66
2021/07/10 04:30:33;;;;;;;12.70;11.50;;;16.20;99.90;;;;;;5028041;28;20248;-66
2021/07/10 04:33:01;;;;;;;12.73;11.50;;;16.30;99.90;;;;;;5028995;28;20319;-66
2021/07/10 04:35:29;;;;;;;11.93;10.73;;;16.30;99.90;;;;;;5033533;28;20716;-66
2021/07/10 04:37:57;;;;;;;11.97;10.67;;;16.30;99.90;;;;;;5043751;28;20286;-66
2021/07/10 04:40:27;;;;;;;11.83;10.63;;;16.40;99.90;;;;;;5028111;28;20236;-66
2021/07/10 04:42:55;;;;;;;13.13;10.70;;;16.40;99.90;;;;;;5028735;28;20241;-66
2021/07/10 04:45:23;;;;;;;12.60;11.27;;;16.50;99.90;;;;;;5029026;28;20499;-66
2021/07/10 04:47:51;;;;;;;12.07;10.87;;;16.50;99.90;;;;;;5029037;28;20232;-66
2021/07/10 04:50:21;;;;;;;12.13;10.33;;;16.50;99.90;;;;;;5013881;28;20720;-66
2021/07/10 04:52:50;;;;;;;11.60;10.43;;;16.60;99.90;;;;;;5028316;28;20224;-66
2021/07/10 04:55:18;;;;;;;11.27;10.17;;;16.70;99.90;;;;;;5028304;28;20476;-67
2021/07/10 04:57:49;;;;;;;10.60;9.67;;;16.70;99.90;;;;;;5028499;28;20292;-66
2021/07/10 05:00:19;;;;;;;12.47;10.90;;;16.70;99.90;;;;;;5008201;28;20233;-67
2021/07/10 05:02:47;;;;;;;10.70;9.70;;;16.70;99.90;;;;;;5007137;28;20241;-66
2021/07/10 05:05:15;;;;;;;10.13;9.13;;;16.80;99.90;;;;;;5047798;28;20227;-66
2021/07/10 05:07:44;;;;;;;11.53;10.43;;;16.90;99.90;;;;;;5048140;28;20720;-66
2021/07/10 05:10:13;;;;;;;11.63;10.43;;;16.90;99.90;;;;;;5041215;28;20308;-66
2021/07/10 05:12:42;;;;;;;11.37;10.23;;;16.90;99.90;;;;;;5027989;28;20248;-66
2021/07/10 05:15:12;;;;;;;10.07;9.07;;;16.90;99.90;;;;;;5047056;28;20244;-66
2021/07/10 05:17:40;;;;;;;11.07;9.97;;;17.00;99.90;;;;;;5048044;28;20301;-66
2021/07/10 05:20:10;;;;;;;11.37;10.37;;;17.00;99.90;;;;;;5028356;28;20233;-65
2021/07/10 05:22:38;;;;;;;11.00;9.87;;;17.00;99.90;;;;;;5027829;28;20224;-66
2021/07/10 05:25:08;;;;;;;10.63;9.70;;;17.10;99.90;;;;;;5033913;28;20220;-66
2021/07/10 05:27:36;;;;;;;10.40;9.50;;;17.10;99.90;;;;;;5028375;28;20823;-66
2021/07/10 05:30:08;;;;;;;10.20;9.27;;;17.10;99.90;;;;;;5027425;28;20600;-66
2021/07/10 05:32:38;;;;;;;10.70;9.70;;;17.20;99.90;;;;;;5027078;28;20236;-66
2021/07/10 05:35:08;;;;;;;10.77;9.67;;;17.20;99.90;;;;;;5046201;28;20243;-67
2021/07/10 05:37:36;;;;;;;10.83;9.03;;;17.20;99.90;;;;;;5047947;28;20703;-66
2021/07/10 05:40:06;;;;;;;10.77;9.67;;;17.30;99.90;;;;;;5039101;28;20728;-66
2021/07/10 05:42:34;;;;;;;9.63;8.63;;;17.40;99.90;;;;;;5027146;28;20244;-66
2021/07/10 05:45:02;;;;;;;11.03;9.17;;;17.50;99.90;;;;;;5026172;28;20224;-66
2021/07/10 05:47:31;;;;;;;9.80;8.90;;;17.50;99.90;;;;;;5027833;28;20303;-66
2021/07/10 05:50:00;;;;;;;8.63;7.83;;;17.70;99.90;;;;;;5027541;28;20243;-66
2021/07/10 05:52:28;;;;;;;9.67;8.40;;;18.10;99.90;;;;;;5041748;28;20242;-66
2021/07/10 05:54:56;;;;;;;8.53;7.73;;;18.40;99.90;;;;;;5044816;28;20468;-66
2021/07/10 05:57:24;;;;;;;9.03;8.20;;;18.70;99.90;;;;;;5047581;28;20623;-67
2021/07/10 05:59:52;;;;;;;8.53;7.50;;;19.00;99.90;;;;;;5026333;28;20233;-66
2021/07/10 06:02:20;;;;;;;8.23;7.43;;;19.00;99.90;;;;;;5025614;28;20252;-66
2021/07/10 06:04:49;;;;;;;7.97;7.27;;;19.00;99.90;;;;;;5031395;28;20243;-65
2021/07/10 06:07:20;;;;;;;8.20;7.37;;;19.00;99.90;;;;;;5025630;28;20261;-66
2021/07/10 06:09:48;;;;;;;8.73;7.80;;;18.90;99.90;;;;;;5022819;28;20284;-66
2021/07/10 06:12:17;;;;;;;9.57;8.30;;;18.90;99.90;;;;;;5025299;28;20240;-66
2021/07/10 06:14:46;;;;;;;8.30;7.50;;;18.90;99.90;;;;;;5041696;28;20255;-67
2021/07/10 06:17:14;;;;;;;8.10;7.30;;;19.10;99.90;;;;;;5045912;28;20726;-66
2021/07/10 06:19:42;;;;;;;9.17;8.23;;;19.20;99.90;;;;;;5029464;28;20286;-67
2021/07/10 06:22:11;;;;;;;8.50;7.70;;;19.10;99.90;;;;;;5024963;28;20436;-66
2021/07/10 06:24:41;;;;;;;7.97;7.20;;;19.10;99.90;;;;;;5039799;28;20324;-66
2021/07/10 06:27:09;;;;;;;8.73;7.20;;;19.10;99.90;;;;;;5024765;28;20234;-66
2021/07/10 06:29:38;;;;;;;9.43;7.63;;;19.00;99.90;;;;;;5026172;28;20293;-66
2021/07/10 06:32:07;;;;;;;8.37;7.57;;;19.00;99.90;;;;;;5025754;28;20234;-65
2021/07/10 06:34:36;;;;;;;8.27;7.43;;;18.90;99.90;;;;;;5025771;28;20234;-66
2021/07/10 06:37:04;;;;;;;7.97;7.17;;;19.00;99.90;;;;;;5025837;28;20235;-65
2021/07/10 06:39:33;;;;;;;7.93;7.23;;;19.10;99.90;;;;;;5010917;28;20274;-66
2021/07/10 06:42:03;;;;;;;7.53;6.70;;;19.30;99.90;;;;;;5031723;28;20247;-66
2021/07/10 06:44:32;;;;;;;9.23;7.37;;;19.50;99.90;;;;;;5013075;28;20334;-65
2021/07/10 06:47:00;;;;;;;7.70;6.60;;;19.60;99.90;;;;;;5014074;28;21418;-66
2021/07/10 06:49:28;;;;;;;7.43;6.53;;;19.60;99.90;;;;;;5016393;28;20243;-66
2021/07/10 06:51:56;;;;;;;7.40;6.70;;;19.40;99.90;;;;;;5012208;28;20252;-66
2021/07/10 06:54:24;;;;;;;9.73;7.50;;;19.30;99.90;;;;;;5027767;28;20286;-66
2021/07/10 06:56:52;;;;;;;8.00;7.10;;;19.20;99.90;;;;;;5013402;28;20261;-66
2021/07/10 06:59:22;;;;;;;7.03;6.43;;;19.10;99.90;;;;;;5020926;28;20893;-66
2021/07/10 07:01:51;;;;;;;8.33;7.37;;;19.00;99.90;;;;;;5016107;28;20622;-66
2021/07/10 07:04:19;;;;;;;7.93;7.23;;;19.00;99.90;;;;;;5024429;28;20237;-65
2021/07/10 07:06:48;;;;;;;7.37;6.57;;;18.90;99.90;;;;;;5029204;28;20391;-66
2021/07/10 07:09:16;;;;;;;7.07;6.47;;;18.90;99.90;;;;;;5030519;28;20331;-66
2021/07/10 07:11:44;;;;;;;10.40;7.30;;;18.90;99.90;;;;;;5028589;28;20271;-66
2021/07/10 07:14:13;;;;;;;8.07;7.27;;;18.80;99.90;;;;;;5028774;28;20265;-66
2021/07/10 07:16:42;;;;;;;8.30;6.90;;;18.70;99.90;;;;;;5029791;28;20227;-66
2021/07/10 07:19:10;;;;;;;7.70;7.00;;;18.60;99.90;;;;;;5029208;28;20243;-66
2021/07/10 07:21:38;;;;;;;7.67;6.97;;;18.60;99.90;;;;;;5026954;28;20245;-66
2021/07/10 07:24:07;;;;;;;7.60;6.90;;;18.50;99.90;;;;;;5029200;28;20327;-66
2021/07/10 07:26:35;;;;;;;7.40;6.70;;;18.50;99.90;;;;;;5029269;28;20241;-66
2021/07/10 07:29:06;;;;;;;7.47;6.77;;;18.60;99.90;;;;;;5029841;28;20239;-66
2021/07/10 07:31:34;;;;;;;7.43;6.80;;;18.60;99.90;;;;;;5025391;28;20263;-66
2021/07/10 07:34:04;;;;;;;7.77;7.00;;;18.60;99.90;;;;;;5029855;28;20324;-65
2021/07/10 07:36:33;;;;;;;7.33;6.60;;;18.60;99.90;;;;;;5026947;28;20242;-66
2021/07/10 07:39:02;;;;;;;7.77;7.00;;;18.50;99.90;;;;;;5027982;28;20242;-66
2021/07/10 07:41:30;;;;;;;7.93;6.70;;;18.50;99.90;;;;;;5025751;28;20237;-66
2021/07/10 07:43:58;;;;;;;7.63;6.87;;;18.60;99.90;;;;;;5028005;28;20343;-66
2021/07/10 07:46:29;;;;;;;7.23;6.53;;;18.60;99.90;;;;;;5029450;28;20316;-66
2021/07/10 07:48:58;;;;;;;7.20;6.50;;;18.80;99.90;;;;;;5029406;28;20319;-66
2021/07/10 07:51:27;;;;;;;6.87;6.27;;;18.80;99.90;;;;;;5025551;28;20708;-66
2021/07/10 07:53:55;;;;;;;7.03;6.33;;;18.90;99.90;;;;;;5029077;28;20274;-65
2021/07/10 07:56:24;;;;;;;7.30;6.60;;;19.00;99.90;;;;;;5029381;28;20240;-66
2021/07/10 07:58:52;;;;;;;7.50;6.57;;;19.00;99.90;;;;;;5028388;28;20241;-66
2021/07/10 08:01:21;;;;;;;7.00;6.40;;;19.10;99.90;;;;;;5026608;28;20916;-66
2021/07/10 08:03:50;;;;;;;7.13;6.43;;;19.20;99.90;;;;;;5044370;28;20581;-66
2021/07/10 08:06:18;;;;;;;6.63;6.03;;;19.30;99.90;;;;;;5029538;28;20255;-65
2021/07/10 08:08:50;;;;;;;6.50;6.00;;;19.40;99.90;;;;;;5031072;28;20277;-66
2021/07/10 08:11:18;;;;;;;12.10;6.80;;;19.60;99.90;;;;;;5027028;28;20250;-66
2021/07/10 08:13:47;;;;;;;7.60;6.50;;;19.60;99.90;;;;;;5028321;28;20349;-66
2021/07/10 08:16:15;;;;;;;7.53;6.27;;;19.50;99.90;;;;;;5029236;28;20232;-66
2021/07/10 08:18:43;;;;;;;7.37;6.67;;;19.60;99.90;;;;;;5027976;28;20611;-66
2021/07/10 08:21:13;;;;;;;7.30;6.60;;;19.60;99.90;;;;;;5024492;28;20240;-65
2021/07/10 08:23:41;;;;;;;7.07;6.40;;;19.60;99.90;;;;;;5029044;28;20827;-66
2021/07/10 08:26:11;;;;;;;6.90;6.20;;;19.60;99.90;;;;;;5029325;28;20277;-66
2021/07/10 08:28:39;;;;;;;7.20;6.57;;;19.60;99.90;;;;;;5030547;28;20245;-66
2021/07/10 08:31:07;;;;;;;7.33;6.63;;;19.80;99.90;;;;;;5027764;28;20277;-66
2021/07/10 08:33:36;;;;;;;7.27;6.67;;;19.80;99.90;;;;;;5030170;28;20595;-66
2021/07/10 08:36:05;;;;;;;7.07;6.47;;;19.80;99.90;;;;;;5029984;28;20643;-65
2021/07/10 08:38:33;;;;;;;6.97;6.27;;;19.80;99.90;;;;;;5027885;28;20243;-65
2021/07/10 08:41:03;;;;;;;6.90;6.20;;;19.80;99.90;;;;;;5029753;28;20235;-65
2021/07/10 08:43:32;;;;;;;7.33;6.63;;;19.80;99.90;;;;;;5027324;28;20245;-65
2021/07/10 08:46:04;;;;;;;6.50;6.00;;;19.90;99.90;;;;;;5026264;28;20248;-66
2021/07/10 08:48:33;;;;;;;7.27;6.57;;;20.10;99.90;;;;;;5025579;28;20401;-66
2021/07/10 08:51:03;;;;;;;7.03;5.83;;;20.30;99.90;;;;;;5028331;28;20245;-66
2021/07/10 08:53:32;;;;;;;6.43;5.87;;;20.50;99.90;;;;;;5042502;28;20644;-66
2021/07/10 08:56:00;;;;;;;6.30;5.77;;;20.80;99.90;;;;;;5028499;28;20300;-65
2021/07/10 08:58:29;;;;;;;6.47;5.27;;;20.90;99.90;;;;;;5027651;28;20358;-65
2021/07/10 09:00:59;;;;;;;6.00;5.40;;;21.30;99.90;;;;;;5024719;28;20257;-64
2021/07/10 09:03:27;;;;;;;6.10;5.33;;;21.60;99.90;;;;;;5026369;28;20645;-66
2021/07/10 09:05:55;;;;;;;5.70;5.10;;;22.10;99.90;;;;;;5044193;28;20254;-66
2021/07/10 09:08:25;;;;;;;6.00;5.40;;;22.80;99.90;;;;;;5027140;28;20254;-66
2021/07/10 09:10:56;;;;;;;5.43;4.93;;;22.40;99.90;;;;;;5029031;28;20815;-65
2021/07/10 09:13:33;;;;;;;5.43;4.63;;;22.30;99.90;;;;;;5025322;28;20370;-66
2021/07/10 09:16:06;;;;;;;4.83;4.40;;;22.80;99.90;;;;;;5020424;28;20242;-65
2021/07/10 09:18:39;;;;;;;4.67;4.27;;;23.80;99.90;;;;;;5026931;28;20242;-65
2021/07/10 09:21:08;;;;;;;4.57;4.10;;;24.60;99.90;;;;;;5023533;28;20244;-66
2021/07/10 09:23:42;;;;;;;4.37;3.93;;;25.80;99.90;;;;;;5028732;28;20237;-65
2021/07/10 09:26:19;;;;;;;4.40;4.00;;;25.90;99.90;;;;;;5027456;28;20320;-66
2021/07/10 09:29:01;;;;;;;4.77;4.27;;;25.20;99.90;;;;;;5027037;28;20286;-66
2021/07/10 09:31:33;;;;;;;5.40;4.90;;;24.20;99.90;;;;;;5028068;28;20241;-66
2021/07/10 09:34:06;;;;;;;4.77;4.37;;;23.90;99.90;;;;;;5026431;28;20236;-65
2021/07/10 09:36:34;;;;;;;5.57;4.63;;;23.90;99.90;;;;;;5025639;28;20834;-65
2021/07/10 09:39:04;;;;;;;5.23;4.73;;;23.50;99.90;;;;;;5025740;28;20228;-65
2021/07/10 09:41:33;;;;;;;4.70;4.23;;;23.00;99.90;;;;;;5027713;28;20260;-66
2021/07/10 09:44:07;;;;;;;4.43;3.60;;;23.30;99.90;;;;;;5028017;28;20658;-65
2021/07/10 09:46:37;;;;;;;3.47;3.17;;;24.10;99.90;;;;;;5030740;28;20662;-65
2021/07/10 09:49:20;;;;;;;4.77;3.47;;;25.20;99.90;;;;;;5035184;28;20236;-65
2021/07/10 09:51:49;;;;;;;3.97;3.40;;;25.90;99.90;;;;;;5024544;28;20239;-66
2021/07/10 09:54:17;;;;;;;3.43;3.10;;;26.50;99.90;;;;;;5025106;28;20579;-65
2021/07/10 09:57:04;;;;;;;3.53;3.23;;;26.70;99.90;;;;;;5023776;28;20583;-66
2021/07/10 09:59:37;;;;;;;4.60;3.60;;;26.60;99.90;;;;;;5026538;28;20246;-65
2021/07/10 10:02:22;;;;;;;4.30;3.67;;;26.00;99.90;;;;;;5027701;28;20811;-66
2021/07/10 10:04:52;;;;;;;4.70;4.20;;;25.20;99.90;;;;;;5023543;28;20379;-65
2021/07/10 10:07:22;;;;;;;4.43;4.03;;;24.30;99.90;;;;;;5027364;28;20580;-66
2021/07/10 10:09:58;;;;;;;4.97;4.40;;;24.10;99.90;;;;;;5026857;28;20243;-65
2021/07/10 10:12:26;;;;;;;4.50;4.10;;;23.90;99.90;;;;;;5016311;28;20266;-66
2021/07/10 10:14:57;;;;;;;4.47;3.70;;;24.20;99.90;;;;;;5022883;28;20293;-66
2021/07/10 10:17:27;;;;;;;3.93;3.43;;;24.60;99.90;;;;;;5026265;28;20248;-66
2021/07/10 10:19:56;;;;;;;4.30;3.50;;;24.80;99.90;;;;;;5027009;28;20256;-66
2021/07/10 10:22:24;;;;;;;3.90;3.60;;;24.70;99.90;;;;;;5025156;28;20225;-66
2021/07/10 10:24:54;;;;;;;4.03;3.73;;;24.30;99.90;;;;;;5027269;28;20240;-65
2021/07/10 10:27:22;;;;;;;3.90;3.50;;;24.50;99.90;;;;;;5026558;28;20232;-66
2021/07/10 10:29:54;;;;;;;4.13;3.23;;;25.30;99.90;;;;;;5032337;28;20592;-65
2021/07/10 10:32:23;;;;;;;3.30;3.00;;;26.00;99.90;;;;;;5027040;28;20669;-66
2021/07/10 10:34:55;;;;;;;4.27;3.47;;;25.90;99.90;;;;;;5026775;28;20294;-66
2021/07/10 10:37:23;;;;;;;3.77;3.47;;;25.40;99.90;;;;;;5027098;28;20714;-66
2021/07/10 10:39:52;;;;;;;3.67;3.37;;;24.90;99.90;;;;;;5026113;28;20250;-66
2021/07/10 10:42:23;;;;;;;4.33;3.80;;;24.40;99.90;;;;;;5025716;28;20238;-65
2021/07/10 10:44:56;;;;;;;5.43;4.20;;;24.00;99.90;;;;;;5018869;28;20237;-65
2021/07/10 10:47:26;;;;;;;5.37;3.77;;;24.00;99.90;;;;;;5020899;28;20279;-66
2021/07/10 10:49:57;;;;;;;3.60;3.30;;;23.90;99.90;;;;;;5023006;28;20249;-66
2021/07/10 10:52:32;;;;;;;3.70;3.40;;;23.90;99.90;;;;;;5024240;28;21775;-66
2021/07/10 10:55:05;;;;;;;3.67;3.37;;;23.90;99.90;;;;;;5042464;28;20237;-67
2021/07/10 10:57:40;;;;;;;4.40;4.00;;;23.90;99.90;;;;;;5044202;28;20319;-66
2021/07/10 11:00:12;;;;;;;4.00;3.60;;;24.00;99.90;;;;;;5025654;28;20298;-67
2021/07/10 11:03:02;;;;;;;4.30;3.90;;;24.00;99.90;;;;;;5025312;28;20238;-66
2021/07/10 11:05:51;;;;;;;3.70;3.40;;;24.10;99.90;;;;;;5019789;28;20233;-67
2021/07/10 11:08:50;;;;;;;3.47;3.03;;;24.20;99.90;;;;;;5023959;28;20241;-66
2021/07/10 11:11:41;;;;;;;3.50;3.20;;;24.20;99.90;;;;;;5026793;28;20277;-66
2021/07/10 11:14:18;;;;;;;3.73;3.20;;;24.40;99.90;;;;;;5025073;28;20239;-67
2021/07/10 11:17:04;;;;;;;3.53;3.27;;;24.40;99.90;;;;;;5027001;28;20251;-67
2021/07/10 11:20:03;;;;;;;3.03;2.83;;;24.20;99.90;;;;;;5026681;28;20320;-66
2021/07/10 11:23:00;;;;;;;3.93;2.87;;;24.10;99.90;;;;;;5006687;28;20580;-67
2021/07/10 11:26:09;;;;;;;3.30;3.00;;;24.30;99.90;;;;;;5019039;28;20660;-67
2021/07/10 11:29:17;;;;;;;3.60;3.30;;;24.80;99.90;;;;;;5026719;28;20271;-66
2021/07/10 11:31:45;;;;;;;3.47;3.17;;;25.40;99.90;;;;;;5021036;28;20249;-66
2021/07/10 11:34:15;;;;;;;3.90;3.07;;;26.20;99.90;;;;;;5026635;28;20230;-67
2021/07/10 11:36:52;;;;;;;4.43;3.13;;;26.60;99.90;;;;;;5026673;28;20286;-67
2021/07/10 11:39:44;;;;;;;3.40;3.10;;;27.30;99.90;;;;;;5026095;28;20335;-66
2021/07/10 11:42:41;;;;;;;2.97;2.77;;;27.60;99.90;;;;;;5026214;28;20275;-67
2021/07/10 11:45:37;;;;;;;3.57;2.93;;;27.80;99.90;;;;;;5026465;28;20266;-66
2021/07/10 11:48:24;;;;;;;3.23;2.97;;;27.40;99.90;;;;;;5026324;28;20298;-66
2021/07/10 11:51:09;;;;;;;3.47;3.17;;;27.30;99.90;;;;;;5028850;28;20777;-67
2021/07/10 11:53:39;;;;;;;3.27;2.93;;;27.10;99.90;;;;;;5029505;28;20294;-67
2021/07/10 11:56:09;;;;;;;4.17;3.33;;;26.90;99.90;;;;;;5029895;28;20258;-66
2021/07/10 11:58:40;;;;;;;3.30;3.00;;;26.60;99.90;;;;;;5029662;28;20236;-66
2021/07/10 12:01:08;;;;;;;3.17;2.90;;;26.70;99.90;;;;;;5029954;28;20703;-67
2021/07/10 12:03:48;;;;;;;3.15;2.70;;;26.90;99.90;;;;;;3966716;28;10001976;-67
2021/07/10 12:06:21;;;;;;;3.67;3.37;;;26.60;99.90;;;;;;2426406;28;10001998;-67
2021/07/10 12:08:59;;;;;;;3.70;3.40;;;26.30;99.90;;;;;;5029802;28;20274;-67
2021/07/10 12:11:29;;;;;;;3.80;3.23;;;25.90;99.90;;;;;;5021867;28;20237;-66
2021/07/10 12:14:04;;;;;;;3.57;3.27;;;25.70;99.90;;;;;;5029134;28;20715;-67
2021/07/10 12:16:33;;;;;;;3.67;3.37;;;25.40;99.90;;;;;;5023147;28;20318;-66
2021/07/10 12:19:01;;;;;;;3.30;3.00;;;25.40;99.90;;;;;;5038725;28;20280;-67
2021/07/10 12:21:30;;;;;;;3.67;3.37;;;25.50;99.90;;;;;;5032735;28;20323;-66
2021/07/10 12:23:58;;;;;;;4.57;4.10;;;25.70;99.90;;;;;;5029006;28;20273;-66
2021/07/10 12:26:27;;;;;;;4.53;3.37;;;25.80;99.90;;;;;;5021493;28;20649;-66
2021/07/10 12:28:59;;;;;;;3.90;3.47;;;25.90;99.90;;;;;;5043963;28;20259;-66
2021/07/10 12:31:30;;;;;;;3.83;3.43;;;25.70;99.90;;;;;;5021490;28;20659;-67
2021/07/10 12:34:01;;;;;;;3.67;3.37;;;25.60;99.90;;;;;;5029102;28;20234;-66
2021/07/10 12:36:32;;;;;;;3.77;3.40;;;25.60;99.90;;;;;;5029208;28;20239;-66
2021/07/10 12:39:10;;;;;;;3.97;3.67;;;25.40;99.90;;;;;;5028877;28;20234;-66
2021/07/10 12:41:45;;;;;;;4.13;3.73;;;25.40;99.90;;;;;;5028029;28;20731;-66
2021/07/10 12:44:28;;;;;;;3.80;3.50;;;25.10;99.90;;;;;;5028998;28;20305;-67
2021/07/10 12:46:59;;;;;;;4.10;3.70;;;25.30;99.90;;;;;;5029405;28;20242;-67
2021/07/10 12:49:33;;;;;;;4.30;3.53;;;25.30;99.90;;;;;;5041992;28;20257;-67
2021/07/10 12:52:03;;;;;;;3.83;3.53;;;25.20;99.90;;;;;;5044477;28;20663;-67
2021/07/10 12:54:37;;;;;;;5.40;3.70;;;25.60;99.90;;;;;;5028644;28;20241;-67
2021/07/10 12:57:33;;;;;;;4.47;4.07;;;25.60;99.90;;;;;;5028841;28;20288;-65